sensor_id;sensor_type;location;lat;lon;timestamp;temperature;humidity
52495;DHT22;38405;53.212;5.660;2022-10-23T00:03:53;9.80;99.90
52495;DHT22;38405;53.212;5.660;2022-10-23T00:06:19;9.80;99.90
52495;DHT22;38405;53.212;5.660;2022-10-23T00:08:46;9.80;99.90
52495;DHT22;38405;53.212;5.660;2022-10-23T00:11:16;9.80;99.90
52495;DHT22;38405;53.212;5.660;2022-10-23T00:13:42;9.80;99.90
52495;DHT22;38405;53.212;5.660;2022-10-23T00:16:08;9.70;99.90
52495;DHT22;38405;53.212;5.660;2022-10-23T00:18:34;9.60;99.90
52495;DHT22;38405;53.212;5.660;2022-10-23T00:21:00;9.80;99.90
52495;DHT22;38405;53.212;5.660;2022-10-23T00:23:26;9.40;99.90
52495;DHT22;38405;53.212;5.660;2022-10-23T00:25:52;9.50;99.90
52495;DHT22;38405;53.212;5.660;2022-10-23T00:28:18;9.50;99.90
52495;DHT22;38405;53.212;5.660;2022-10-23T00:30:43;9.50;99.90
52495;DHT22;38405;53.212;5.660;2022-10-23T00:33:09;9.50;99.90
52495;DHT22;38405;53.212;5.660;2022-10-23T00:35:38;9.30;99.90
52495;DHT22;38405;53.212;5.660;2022-10-23T00:38:04;9.30;99.90
52495;DHT22;38405;53.212;5.660;2022-10-23T00:40:30;9.30;99.90
52495;DHT22;38405;53.212;5.660;2022-10-23T00:42:56;9.30;99.90
52495;DHT22;38405;53.212;5.660;2022-10-23T00:45:31;9.30;99.90
52495;DHT22;38405;53.212;5.660;2022-10-23T00:47:59;9.30;99.90
52495;DHT22;38405;53.212;5.660;2022-10-23T00:50:29;9.30;99.90
52495;DHT22;38405;53.212;5.660;2022-10-23T00:52:55;9.30;99.90
52495;DHT22;38405;53.212;5.660;2022-10-23T00:55:23;9.30;99.90
52495;DHT22;38405;53.212;5.660;2022-10-23T00:57:50;9.50;99.90
52495;DHT22;38405;53.212;5.660;2022-10-23T01:00:20;9.40;99.90
52495;DHT22;38405;53.212;5.660;2022-10-23T01:02:47;9.20;99.90
52495;DHT22;38405;53.212;5.660;2022-10-23T01:05:12;9.20;99.90
52495;DHT22;38405;53.212;5.660;2022-10-23T01:07:56;9.50;99.90
52495;DHT22;38405;53.212;5.660;2022-10-23T01:10:43;9.20;99.90
52495;DHT22;38405;53.212;5.660;2022-10-23T01:13:18;9.20;99.90
52495;DHT22;38405;53.212;5.660;2022-10-23T01:15:52;9.20;99.90
52495;DHT22;38405;53.212;5.660;2022-10-23T01:18:57;9.10;99.90
52495;DHT22;38405;53.212;5.660;2022-10-23T01:24:22;9.00;99.90
52495;DHT22;38405;53.212;5.660;2022-10-23T01:26:54;9.00;99.90
52495;DHT22;38405;53.212;5.660;2022-10-23T01:29:33;9.10;99.90
52495;DHT22;38405;53.212;5.660;2022-10-23T01:32:09;9.10;99.90
52495;DHT22;38405;53.212;5.660;2022-10-23T01:34:48;9.20;99.90
52495;DHT22;38405;53.212;5.660;2022-10-23T01:37:20;9.20;99.90
52495;DHT22;38405;53.212;5.660;2022-10-23T01:39:51;9.20;99.90
52495;DHT22;38405;53.212;5.660;2022-10-23T01:42:25;9.40;99.90
52495;DHT22;38405;53.212;5.660;2022-10-23T01:44:58;9.20;99.90
52495;DHT22;38405;53.212;5.660;2022-10-23T01:47:27;9.20;99.90
52495;DHT22;38405;53.212;5.660;2022-10-23T01:49:55;9.20;99.90
52495;DHT22;38405;53.212;5.660;2022-10-23T01:52:22;9.00;99.90
52495;DHT22;38405;53.212;5.660;2022-10-23T01:54:49;9.00;99.90
52495;DHT22;38405;53.212;5.660;2022-10-23T01:57:17;9.70;99.90
52495;DHT22;38405;53.212;5.660;2022-10-23T01:59:48;9.00;99.90
52495;DHT22;38405;53.212;5.660;2022-10-23T02:02:16;9.10;99.90
52495;DHT22;38405;53.212;5.660;2022-10-23T02:05:01;9.10;99.90
52495;DHT22;38405;53.212;5.660;2022-10-23T02:07:28;9.10;99.90
52495;DHT22;38405;53.212;5.660;2022-10-23T02:09:54;9.10;99.90
52495;DHT22;38405;53.212;5.660;2022-10-23T02:17:42;9.10;99.90
52495;DHT22;38405;53.212;5.660;2022-10-23T02:20:16;9.00;99.90
52495;DHT22;38405;53.212;5.660;2022-10-23T02:22:53;9.00;99.90
52495;DHT22;38405;53.212;5.660;2022-10-23T02:25:31;8.90;99.90
52495;DHT22;38405;53.212;5.660;2022-10-23T02:28:03;8.80;99.90
52495;DHT22;38405;53.212;5.660;2022-10-23T02:30:31;8.80;99.90
52495;DHT22;38405;53.212;5.660;2022-10-23T02:32:59;8.80;99.90
52495;DHT22;38405;53.212;5.660;2022-10-23T02:35:26;8.70;99.90
52495;DHT22;38405;53.212;5.660;2022-10-23T02:37:57;8.70;99.90
52495;DHT22;38405;53.212;5.660;2022-10-23T02:40:25;9.10;99.90
52495;DHT22;38405;53.212;5.660;2022-10-23T02:43:02;8.70;99.90
52495;DHT22;38405;53.212;5.660;2022-10-23T02:45:36;8.70;99.90
52495;DHT22;38405;53.212;5.660;2022-10-23T02:48:28;8.80;99.90
52495;DHT22;38405;53.212;5.660;2022-10-23T02:51:00;9.40;99.90
52495;DHT22;38405;53.212;5.660;2022-10-23T02:53:45;9.20;99.90
52495;DHT22;38405;53.212;5.660;2022-10-23T02:56:22;9.20;99.90
52495;DHT22;38405;53.212;5.660;2022-10-23T03:01:52;9.30;99.90
52495;DHT22;38405;53.212;5.660;2022-10-23T03:04:23;9.60;99.90
52495;DHT22;38405;53.212;5.660;2022-10-23T03:06:50;9.30;99.90
52495;DHT22;38405;53.212;5.660;2022-10-23T03:09:16;9.20;99.90
52495;DHT22;38405;53.212;5.660;2022-10-23T03:11:42;9.20;99.90
52495;DHT22;38405;53.212;5.660;2022-10-23T03:14:08;9.40;99.90
52495;DHT22;38405;53.212;5.660;2022-10-23T03:16:34;9.20;99.90
52495;DHT22;38405;53.212;5.660;2022-10-23T03:18:59;9.30;99.90
52495;DHT22;38405;53.212;5.660;2022-10-23T03:21:25;9.20;99.90
52495;DHT22;38405;53.212;5.660;2022-10-23T03:23:50;9.30;99.90
52495;DHT22;38405;53.212;5.660;2022-10-23T03:26:16;9.30;99.90
52495;DHT22;38405;53.212;5.660;2022-10-23T03:28:42;9.20;99.90
52495;DHT22;38405;53.212;5.660;2022-10-23T03:31:07;9.50;99.90
52495;DHT22;38405;53.212;5.660;2022-10-23T03:33:33;9.40;99.90
52495;DHT22;38405;53.212;5.660;2022-10-23T03:35:59;9.50;99.90
52495;DHT22;38405;53.212;5.660;2022-10-23T03:38:25;9.50;99.90
52495;DHT22;38405;53.212;5.660;2022-10-23T03:40:50;9.60;99.90
52495;DHT22;38405;53.212;5.660;2022-10-23T03:43:16;9.60;99.90
52495;DHT22;38405;53.212;5.660;2022-10-23T03:45:41;9.90;99.90
52495;DHT22;38405;53.212;5.660;2022-10-23T03:48:07;9.60;99.90
52495;DHT22;38405;53.212;5.660;2022-10-23T03:50:34;9.60;99.90
52495;DHT22;38405;53.212;5.660;2022-10-23T03:52:59;9.50;99.90
52495;DHT22;38405;53.212;5.660;2022-10-23T03:55:25;9.50;99.90
52495;DHT22;38405;53.212;5.660;2022-10-23T03:57:52;9.60;99.90
52495;DHT22;38405;53.212;5.660;2022-10-23T04:00:18;9.60;99.90
52495;DHT22;38405;53.212;5.660;2022-10-23T04:02:44;9.60;99.90
52495;DHT22;38405;53.212;5.660;2022-10-23T04:05:10;9.80;99.90
52495;DHT22;38405;53.212;5.660;2022-10-23T04:07:35;9.80;99.90
52495;DHT22;38405;53.212;5.660;2022-10-23T04:10:02;9.80;99.90
52495;DHT22;38405;53.212;5.660;2022-10-23T04:12:28;9.90;99.90
52495;DHT22;38405;53.212;5.660;2022-10-23T04:14:54;10.00;99.90
52495;DHT22;38405;53.212;5.660;2022-10-23T04:17:20;10.10;99.90
52495;DHT22;38405;53.212;5.660;2022-10-23T04:19:45;10.10;99.90
52495;DHT22;38405;53.212;5.660;2022-10-23T04:22:11;10.20;99.90
52495;DHT22;38405;53.212;5.660;2022-10-23T04:24:36;10.20;99.90
52495;DHT22;38405;53.212;5.660;2022-10-23T04:27:02;10.30;99.90
52495;DHT22;38405;53.212;5.660;2022-10-23T04:29:28;10.20;99.90
52495;DHT22;38405;53.212;5.660;2022-10-23T04:31:56;10.10;99.90
52495;DHT22;38405;53.212;5.660;2022-10-23T04:34:21;10.40;99.90
52495;DHT22;38405;53.212;5.660;2022-10-23T04:36:47;10.10;99.90
52495;DHT22;38405;53.212;5.660;2022-10-23T04:39:13;10.10;99.90
52495;DHT22;38405;53.212;5.660;2022-10-23T04:41:39;10.00;99.90
52495;DHT22;38405;53.212;5.660;2022-10-23T04:44:05;10.20;99.90
52495;DHT22;38405;53.212;5.660;2022-10-23T04:46:31;10.10;99.90
52495;DHT22;38405;53.212;5.660;2022-10-23T04:48:56;10.10;99.90
52495;DHT22;38405;53.212;5.660;2022-10-23T04:51:22;10.30;99.90
52495;DHT22;38405;53.212;5.660;2022-10-23T04:53:48;10.20;99.90
52495;DHT22;38405;53.212;5.660;2022-10-23T04:56:14;10.20;99.90
52495;DHT22;38405;53.212;5.660;2022-10-23T04:58:40;10.20;99.90
52495;DHT22;38405;53.212;5.660;2022-10-23T05:01:07;10.20;99.90
52495;DHT22;38405;53.212;5.660;2022-10-23T05:03:35;10.20;99.90
52495;DHT22;38405;53.212;5.660;2022-10-23T05:06:01;10.30;99.90
52495;DHT22;38405;53.212;5.660;2022-10-23T05:08:27;10.30;99.90
52495;DHT22;38405;53.212;5.660;2022-10-23T05:10:53;10.20;99.90
52495;DHT22;38405;53.212;5.660;2022-10-23T05:13:19;10.10;99.90
52495;DHT22;38405;53.212;5.660;2022-10-23T05:15:49;10.00;99.90
52495;DHT22;38405;53.212;5.660;2022-10-23T05:18:25;10.10;99.90
52495;DHT22;38405;53.212;5.660;2022-10-23T05:21:00;9.80;99.90
52495;DHT22;38405;53.212;5.660;2022-10-23T05:23:27;9.80;99.90
52495;DHT22;38405;53.212;5.660;2022-10-23T05:25:54;9.70;99.90
52495;DHT22;38405;53.212;5.660;2022-10-23T05:28:19;9.70;99.90
52495;DHT22;38405;53.212;5.660;2022-10-23T05:30:45;9.70;99.90
52495;DHT22;38405;53.212;5.660;2022-10-23T05:33:11;9.90;99.90
52495;DHT22;38405;53.212;5.660;2022-10-23T05:35:37;10.00;99.90
52495;DHT22;38405;53.212;5.660;2022-10-23T05:38:04;10.10;99.90
52495;DHT22;38405;53.212;5.660;2022-10-23T05:40:30;10.20;99.90
52495;DHT22;38405;53.212;5.660;2022-10-23T05:42:56;10.20;99.90
52495;DHT22;38405;53.212;5.660;2022-10-23T05:45:22;10.30;99.90
52495;DHT22;38405;53.212;5.660;2022-10-23T05:47:47;10.30;99.90
52495;DHT22;38405;53.212;5.660;2022-10-23T05:50:14;10.40;99.90
52495;DHT22;38405;53.212;5.660;2022-10-23T05:52:39;10.30;99.90
52495;DHT22;38405;53.212;5.660;2022-10-23T05:55:05;10.30;99.90
52495;DHT22;38405;53.212;5.660;2022-10-23T05:57:32;10.30;99.90
52495;DHT22;38405;53.212;5.660;2022-10-23T05:59:58;10.40;99.90
52495;DHT22;38405;53.212;5.660;2022-10-23T06:02:24;10.40;99.90
52495;DHT22;38405;53.212;5.660;2022-10-23T06:04:49;10.30;99.90
52495;DHT22;38405;53.212;5.660;2022-10-23T06:07:15;10.40;99.90
52495;DHT22;38405;53.212;5.660;2022-10-23T06:09:41;10.30;99.90
52495;DHT22;38405;53.212;5.660;2022-10-23T06:12:06;10.40;99.90
52495;DHT22;38405;53.212;5.660;2022-10-23T06:14:32;10.30;99.90
52495;DHT22;38405;53.212;5.660;2022-10-23T06:16:58;10.40;99.90
52495;DHT22;38405;53.212;5.660;2022-10-23T06:19:23;10.40;99.90
52495;DHT22;38405;53.212;5.660;2022-10-23T06:21:49;10.40;99.90
52495;DHT22;38405;53.212;5.660;2022-10-23T06:24:14;10.40;99.90
52495;DHT22;38405;53.212;5.660;2022-10-23T06:26:44;10.40;99.90
52495;DHT22;38405;53.212;5.660;2022-10-23T06:29:10;10.40;99.90
52495;DHT22;38405;53.212;5.660;2022-10-23T06:31:35;10.40;99.90
52495;DHT22;38405;53.212;5.660;2022-10-23T06:34:01;10.40;99.90
52495;DHT22;38405;53.212;5.660;2022-10-23T06:36:26;10.40;99.90
52495;DHT22;38405;53.212;5.660;2022-10-23T06:38:52;10.40;99.90
52495;DHT22;38405;53.212;5.660;2022-10-23T06:41:20;10.40;99.90
52495;DHT22;38405;53.212;5.660;2022-10-23T06:43:49;10.40;99.90
52495;DHT22;38405;53.212;5.660;2022-10-23T06:46:16;10.50;99.90
52495;DHT22;38405;53.212;5.660;2022-10-23T06:48:43;10.50;99.90
52495;DHT22;38405;53.212;5.660;2022-10-23T06:51:11;10.50;99.90
52495;DHT22;38405;53.212;5.660;2022-10-23T06:53:38;10.50;99.90
52495;DHT22;38405;53.212;5.660;2022-10-23T06:56:05;10.60;99.90
52495;DHT22;38405;53.212;5.660;2022-10-23T06:58:32;10.60;99.90
52495;DHT22;38405;53.212;5.660;2022-10-23T07:01:05;10.60;99.90
52495;DHT22;38405;53.212;5.660;2022-10-23T07:03:31;10.60;99.90
52495;DHT22;38405;53.212;5.660;2022-10-23T07:06:00;10.70;99.90
52495;DHT22;38405;53.212;5.660;2022-10-23T07:08:27;10.60;99.90
52495;DHT22;38405;53.212;5.660;2022-10-23T07:10:52;10.70;99.90
52495;DHT22;38405;53.212;5.660;2022-10-23T07:13:18;10.70;99.90
52495;DHT22;38405;53.212;5.660;2022-10-23T07:15:43;10.70;99.90
52495;DHT22;38405;53.212;5.660;2022-10-23T07:18:09;10.80;99.90
52495;DHT22;38405;53.212;5.660;2022-10-23T07:20:42;10.80;99.90
52495;DHT22;38405;53.212;5.660;2022-10-23T07:23:10;10.90;99.90
52495;DHT22;38405;53.212;5.660;2022-10-23T07:25:36;10.90;99.90
52495;DHT22;38405;53.212;5.660;2022-10-23T07:28:05;10.90;99.90
52495;DHT22;38405;53.212;5.660;2022-10-23T07:30:31;11.00;99.90
52495;DHT22;38405;53.212;5.660;2022-10-23T07:32:56;11.00;99.90
52495;DHT22;38405;53.212;5.660;2022-10-23T07:35:22;11.00;99.90
52495;DHT22;38405;53.212;5.660;2022-10-23T07:37:47;11.10;99.90
52495;DHT22;38405;53.212;5.660;2022-10-23T07:40:13;11.10;99.90
52495;DHT22;38405;53.212;5.660;2022-10-23T07:42:39;11.20;99.90
52495;DHT22;38405;53.212;5.660;2022-10-23T07:45:05;11.20;99.90
52495;DHT22;38405;53.212;5.660;2022-10-23T07:47:32;11.30;99.90
52495;DHT22;38405;53.212;5.660;2022-10-23T07:49:57;11.30;99.90
52495;DHT22;38405;53.212;5.660;2022-10-23T07:52:23;11.30;99.90
52495;DHT22;38405;53.212;5.660;2022-10-23T07:54:52;11.40;99.90
52495;DHT22;38405;53.212;5.660;2022-10-23T07:57:18;11.50;99.90
52495;DHT22;38405;53.212;5.660;2022-10-23T07:59:44;11.50;99.90
52495;DHT22;38405;53.212;5.660;2022-10-23T08:02:11;11.60;99.90
52495;DHT22;38405;53.212;5.660;2022-10-23T08:04:37;11.60;99.90
52495;DHT22;38405;53.212;5.660;2022-10-23T08:07:03;11.60;99.90
52495;DHT22;38405;53.212;5.660;2022-10-23T08:09:28;11.70;99.90
52495;DHT22;38405;53.212;5.660;2022-10-23T08:11:54;11.70;99.90
52495;DHT22;38405;53.212;5.660;2022-10-23T08:14:19;11.70;99.90
52495;DHT22;38405;53.212;5.660;2022-10-23T08:16:45;11.80;99.90
52495;DHT22;38405;53.212;5.660;2022-10-23T08:19:11;11.80;99.90
52495;DHT22;38405;53.212;5.660;2022-10-23T08:21:37;11.90;99.90
52495;DHT22;38405;53.212;5.660;2022-10-23T08:24:03;12.00;99.90
52495;DHT22;38405;53.212;5.660;2022-10-23T08:26:29;12.00;99.90
52495;DHT22;38405;53.212;5.660;2022-10-23T08:28:56;12.00;99.90
52495;DHT22;38405;53.212;5.660;2022-10-23T08:31:22;12.10;99.90
52495;DHT22;38405;53.212;5.660;2022-10-23T08:33:48;12.20;99.90
52495;DHT22;38405;53.212;5.660;2022-10-23T08:36:22;12.30;99.90
52495;DHT22;38405;53.212;5.660;2022-10-23T08:38:48;12.30;99.90
52495;DHT22;38405;53.212;5.660;2022-10-23T08:41:42;12.40;99.90
52495;DHT22;38405;53.212;5.660;2022-10-23T08:44:29;12.50;99.90
52495;DHT22;38405;53.212;5.660;2022-10-23T08:49:57;12.70;99.90
52495;DHT22;38405;53.212;5.660;2022-10-23T08:52:36;12.80;99.90
52495;DHT22;38405;53.212;5.660;2022-10-23T08:55:22;12.80;99.90
52495;DHT22;38405;53.212;5.660;2022-10-23T08:58:04;12.90;99.90
52495;DHT22;38405;53.212;5.660;2022-10-23T09:00:31;13.00;99.90
52495;DHT22;38405;53.212;5.660;2022-10-23T09:03:00;13.10;99.90
52495;DHT22;38405;53.212;5.660;2022-10-23T09:05:53;13.10;99.90
52495;DHT22;38405;53.212;5.660;2022-10-23T09:08:39;13.20;99.90
52495;DHT22;38405;53.212;5.660;2022-10-23T09:11:35;13.30;99.90
52495;DHT22;38405;53.212;5.660;2022-10-23T09:17:23;13.40;99.90
52495;DHT22;38405;53.212;5.660;2022-10-23T09:19:55;13.40;99.90
52495;DHT22;38405;53.212;5.660;2022-10-23T09:22:23;13.50;99.90
52495;DHT22;38405;53.212;5.660;2022-10-23T09:24:48;13.60;99.90
52495;DHT22;38405;53.212;5.660;2022-10-23T09:27:15;13.70;99.90
52495;DHT22;38405;53.212;5.660;2022-10-23T09:29:50;13.70;99.90
52495;DHT22;38405;53.212;5.660;2022-10-23T09:32:17;13.80;99.90
52495;DHT22;38405;53.212;5.660;2022-10-23T09:34:52;13.90;99.90
52495;DHT22;38405;53.212;5.660;2022-10-23T09:37:29;14.00;99.90
52495;DHT22;38405;53.212;5.660;2022-10-23T09:40:13;14.10;99.90
52495;DHT22;38405;53.212;5.660;2022-10-23T09:42:57;14.10;99.90
52495;DHT22;38405;53.212;5.660;2022-10-23T09:45:27;14.20;99.90
52495;DHT22;38405;53.212;5.660;2022-10-23T09:48:23;14.20;99.90
52495;DHT22;38405;53.212;5.660;2022-10-23T09:50:51;14.30;99.90
52495;DHT22;38405;53.212;5.660;2022-10-23T09:53:39;14.30;99.90
52495;DHT22;38405;53.212;5.660;2022-10-23T09:56:33;14.30;99.90
52495;DHT22;38405;53.212;5.660;2022-10-23T10:01:29;14.30;99.90
52495;DHT22;38405;53.212;5.660;2022-10-23T10:03:55;14.40;99.90
52495;DHT22;38405;53.212;5.660;2022-10-23T10:06:28;14.40;99.90
52495;DHT22;38405;53.212;5.660;2022-10-23T10:08:57;14.40;99.90
52495;DHT22;38405;53.212;5.660;2022-10-23T10:11:34;14.40;99.90
52495;DHT22;38405;53.212;5.660;2022-10-23T10:36:33;14.90;99.90
52495;DHT22;38405;53.212;5.660;2022-10-23T10:39:14;15.00;99.90
52495;DHT22;38405;53.212;5.660;2022-10-23T10:44:52;15.10;99.90
52495;DHT22;38405;53.212;5.660;2022-10-23T10:50:17;15.20;99.90
52495;DHT22;38405;53.212;5.660;2022-10-23T10:55:52;15.30;99.90
52495;DHT22;38405;53.212;5.660;2022-10-23T10:58:35;15.40;99.90
52495;DHT22;38405;53.212;5.660;2022-10-23T11:01:31;15.40;99.90
52495;DHT22;38405;53.212;5.660;2022-10-23T11:04:17;15.40;99.90
52495;DHT22;38405;53.212;5.660;2022-10-23T11:06:51;15.40;99.90
52495;DHT22;38405;53.212;5.660;2022-10-23T11:09:27;15.30;99.90
52495;DHT22;38405;53.212;5.660;2022-10-23T11:11:55;15.40;99.90
52495;DHT22;38405;53.212;5.660;2022-10-23T11:14:23;15.40;99.90
52495;DHT22;38405;53.212;5.660;2022-10-23T11:17:00;15.50;99.90
52495;DHT22;38405;53.212;5.660;2022-10-23T11:19:35;15.50;99.90
52495;DHT22;38405;53.212;5.660;2022-10-23T11:22:26;15.60;99.90
52495;DHT22;38405;53.212;5.660;2022-10-23T11:36:58;15.80;99.90
52495;DHT22;38405;53.212;5.660;2022-10-23T11:39:33;15.90;99.90
52495;DHT22;38405;53.212;5.660;2022-10-23T11:44:48;16.00;99.90
52495;DHT22;38405;53.212;5.660;2022-10-23T11:52:33;16.20;99.90
52495;DHT22;38405;53.212;5.660;2022-10-23T11:55:00;16.20;99.90
52495;DHT22;38405;53.212;5.660;2022-10-23T11:57:27;16.20;99.90
52495;DHT22;38405;53.212;5.660;2022-10-23T11:59:54;16.20;99.90
52495;DHT22;38405;53.212;5.660;2022-10-23T12:02:28;16.20;99.90
52495;DHT22;38405;53.212;5.660;2022-10-23T12:05:35;16.10;99.90
52495;DHT22;38405;53.212;5.660;2022-10-23T12:08:16;16.10;99.90
52495;DHT22;38405;53.212;5.660;2022-10-23T12:10:48;16.00;99.90
52495;DHT22;38405;53.212;5.660;2022-10-23T12:15:55;16.00;99.90
52495;DHT22;38405;53.212;5.660;2022-10-23T12:18:21;15.90;99.90
52495;DHT22;38405;53.212;5.660;2022-10-23T12:21:01;15.90;99.90
52495;DHT22;38405;53.212;5.660;2022-10-23T12:23:53;15.80;99.90
52495;DHT22;38405;53.212;5.660;2022-10-23T12:26:41;15.80;99.90
52495;DHT22;38405;53.212;5.660;2022-10-23T12:29:33;15.80;99.90
52495;DHT22;38405;53.212;5.660;2022-10-23T12:35:20;15.90;99.90
52495;DHT22;38405;53.212;5.660;2022-10-23T12:38:02;15.90;99.90
52495;DHT22;38405;53.212;5.660;2022-10-23T12:40:29;15.90;99.90
52495;DHT22;38405;53.212;5.660;2022-10-23T12:42:57;15.90;99.90
52495;DHT22;38405;53.212;5.660;2022-10-23T12:45:32;15.90;99.90
52495;DHT22;38405;53.212;5.660;2022-10-23T12:47:59;15.90;99.90
52495;DHT22;38405;53.212;5.660;2022-10-23T12:50:32;15.90;99.90
52495;DHT22;38405;53.212;5.660;2022-10-23T12:53:00;16.00;99.90
52495;DHT22;38405;53.212;5.660;2022-10-23T12:58:21;16.00;99.90
52495;DHT22;38405;53.212;5.660;2022-10-23T13:01:00;15.90;99.90
52495;DHT22;38405;53.212;5.660;2022-10-23T13:03:28;16.00;99.90
52495;DHT22;38405;53.212;5.660;2022-10-23T13:05:56;15.90;99.90
52495;DHT22;38405;53.212;5.660;2022-10-23T13:08:38;15.90;99.90
52495;DHT22;38405;53.212;5.660;2022-10-23T13:11:05;15.90;99.90
52495;DHT22;38405;53.212;5.660;2022-10-23T13:13:32;15.90;99.90
52495;DHT22;38405;53.212;5.660;2022-10-23T13:15:58;15.90;99.90
52495;DHT22;38405;53.212;5.660;2022-10-23T13:18:24;15.90;99.90
52495;DHT22;38405;53.212;5.660;2022-10-23T13:23:24;16.00;99.90
52495;DHT22;38405;53.212;5.660;2022-10-23T13:26:00;16.00;99.90
52495;DHT22;38405;53.212;5.660;2022-10-23T13:28:30;15.90;99.90
52495;DHT22;38405;53.212;5.660;2022-10-23T13:33:25;15.90;99.90
52495;DHT22;38405;53.212;5.660;2022-10-23T13:35:59;15.90;99.90
52495;DHT22;38405;53.212;5.660;2022-10-23T13:38:30;15.90;99.90
52495;DHT22;38405;53.212;5.660;2022-10-23T13:41:04;15.90;99.90
52495;DHT22;38405;53.212;5.660;2022-10-23T13:43:32;15.80;99.90
52495;DHT22;38405;53.212;5.660;2022-10-23T13:45:59;15.80;99.90
52495;DHT22;38405;53.212;5.660;2022-10-23T13:48:26;15.90;99.90
52495;DHT22;38405;53.212;5.660;2022-10-23T13:50:52;15.90;99.90
52495;DHT22;38405;53.212;5.660;2022-10-23T13:53:18;15.80;99.90
52495;DHT22;38405;53.212;5.660;2022-10-23T13:55:46;15.80;99.90
52495;DHT22;38405;53.212;5.660;2022-10-23T13:58:13;15.80;99.90
52495;DHT22;38405;53.212;5.660;2022-10-23T14:00:39;15.70;99.90
52495;DHT22;38405;53.212;5.660;2022-10-23T14:03:08;15.70;99.90
52495;DHT22;38405;53.212;5.660;2022-10-23T14:05:33;15.70;99.90
52495;DHT22;38405;53.212;5.660;2022-10-23T14:07:59;15.70;99.90
52495;DHT22;38405;53.212;5.660;2022-10-23T14:10:25;15.70;99.90
52495;DHT22;38405;53.212;5.660;2022-10-23T14:12:50;15.70;99.90
52495;DHT22;38405;53.212;5.660;2022-10-23T14:15:19;15.60;99.90
52495;DHT22;38405;53.212;5.660;2022-10-23T14:17:45;15.60;99.90
52495;DHT22;38405;53.212;5.660;2022-10-23T14:20:11;15.60;99.90
52495;DHT22;38405;53.212;5.660;2022-10-23T14:22:37;15.60;99.90
52495;DHT22;38405;53.212;5.660;2022-10-23T14:25:03;15.60;99.90
52495;DHT22;38405;53.212;5.660;2022-10-23T14:27:29;15.60;99.90
52495;DHT22;38405;53.212;5.660;2022-10-23T14:29:55;15.60;99.90
52495;DHT22;38405;53.212;5.660;2022-10-23T14:32:21;15.60;99.90
52495;DHT22;38405;53.212;5.660;2022-10-23T14:34:51;15.60;99.90
52495;DHT22;38405;53.212;5.660;2022-10-23T14:37:17;15.60;99.90
52495;DHT22;38405;53.212;5.660;2022-10-23T14:39:44;15.60;99.90
52495;DHT22;38405;53.212;5.660;2022-10-23T14:42:10;15.60;99.90
52495;DHT22;38405;53.212;5.660;2022-10-23T14:44:36;15.60;99.90
52495;DHT22;38405;53.212;5.660;2022-10-23T14:47:02;15.70;99.90
52495;DHT22;38405;53.212;5.660;2022-10-23T14:49:28;15.70;99.90
52495;DHT22;38405;53.212;5.660;2022-10-23T14:51:54;15.70;99.90
52495;DHT22;38405;53.212;5.660;2022-10-23T14:54:19;15.70;99.90
52495;DHT22;38405;53.212;5.660;2022-10-23T14:56:45;15.70;99.90
52495;DHT22;38405;53.212;5.660;2022-10-23T14:59:11;15.80;99.90
52495;DHT22;38405;53.212;5.660;2022-10-23T15:01:41;15.80;99.90
52495;DHT22;38405;53.212;5.660;2022-10-23T15:04:07;15.80;99.90
52495;DHT22;38405;53.212;5.660;2022-10-23T15:06:34;15.80;99.90
52495;DHT22;38405;53.212;5.660;2022-10-23T15:09:00;15.90;99.90
52495;DHT22;38405;53.212;5.660;2022-10-23T15:11:26;15.80;99.90
52495;DHT22;38405;53.212;5.660;2022-10-23T15:13:53;15.90;99.90
52495;DHT22;38405;53.212;5.660;2022-10-23T15:16:21;15.80;99.90
52495;DHT22;38405;53.212;5.660;2022-10-23T15:18:51;15.80;99.90
52495;DHT22;38405;53.212;5.660;2022-10-23T15:21:27;15.80;99.90
52495;DHT22;38405;53.212;5.660;2022-10-23T15:23:56;15.80;99.90
52495;DHT22;38405;53.212;5.660;2022-10-23T15:26:25;15.80;99.90
52495;DHT22;38405;53.212;5.660;2022-10-23T15:28:55;15.80;99.90
52495;DHT22;38405;53.212;5.660;2022-10-23T15:33:56;15.80;99.90
52495;DHT22;38405;53.212;5.660;2022-10-23T15:36:22;15.80;99.90
52495;DHT22;38405;53.212;5.660;2022-10-23T15:38:48;15.80;99.90
52495;DHT22;38405;53.212;5.660;2022-10-23T15:41:16;15.70;99.90
52495;DHT22;38405;53.212;5.660;2022-10-23T15:43:45;15.70;99.90
52495;DHT22;38405;53.212;5.660;2022-10-23T15:46:11;15.60;99.90
52495;DHT22;38405;53.212;5.660;2022-10-23T15:48:36;15.60;99.90
52495;DHT22;38405;53.212;5.660;2022-10-23T15:51:02;15.60;99.90
52495;DHT22;38405;53.212;5.660;2022-10-23T15:53:28;15.50;99.90
52495;DHT22;38405;53.212;5.660;2022-10-23T15:55:57;15.40;99.90
52495;DHT22;38405;53.212;5.660;2022-10-23T15:58:23;15.40;99.90
52495;DHT22;38405;53.212;5.660;2022-10-23T16:00:49;15.40;99.90
52495;DHT22;38405;53.212;5.660;2022-10-23T16:03:15;15.30;99.90
52495;DHT22;38405;53.212;5.660;2022-10-23T16:05:40;15.20;99.90
52495;DHT22;38405;53.212;5.660;2022-10-23T16:08:06;15.20;99.90
52495;DHT22;38405;53.212;5.660;2022-10-23T16:10:32;15.20;99.90
52495;DHT22;38405;53.212;5.660;2022-10-23T16:12:57;15.10;99.90
52495;DHT22;38405;53.212;5.660;2022-10-23T16:15:23;15.10;99.90
52495;DHT22;38405;53.212;5.660;2022-10-23T16:17:49;15.00;99.90
52495;DHT22;38405;53.212;5.660;2022-10-23T16:20:16;15.00;99.90
52495;DHT22;38405;53.212;5.660;2022-10-23T16:22:52;14.90;99.90
52495;DHT22;38405;53.212;5.660;2022-10-23T16:25:17;14.90;99.90
52495;DHT22;38405;53.212;5.660;2022-10-23T16:27:43;15.00;99.90
52495;DHT22;38405;53.212;5.660;2022-10-23T16:30:09;14.90;99.90
52495;DHT22;38405;53.212;5.660;2022-10-23T16:32:41;14.90;99.90
52495;DHT22;38405;53.212;5.660;2022-10-23T16:35:07;14.90;99.90
52495;DHT22;38405;53.212;5.660;2022-10-23T16:37:33;14.80;99.90
52495;DHT22;38405;53.212;5.660;2022-10-23T16:39:59;14.80;99.90
52495;DHT22;38405;53.212;5.660;2022-10-23T16:42:27;14.80;99.90
52495;DHT22;38405;53.212;5.660;2022-10-23T16:44:53;14.80;99.90
52495;DHT22;38405;53.212;5.660;2022-10-23T16:47:19;14.80;99.90
52495;DHT22;38405;53.212;5.660;2022-10-23T16:49:45;14.80;99.90
52495;DHT22;38405;53.212;5.660;2022-10-23T16:52:10;14.70;99.90
52495;DHT22;38405;53.212;5.660;2022-10-23T16:54:36;14.70;99.90
52495;DHT22;38405;53.212;5.660;2022-10-23T16:57:02;14.70;99.90
52495;DHT22;38405;53.212;5.660;2022-10-23T16:59:28;14.60;99.90
52495;DHT22;38405;53.212;5.660;2022-10-23T17:01:53;14.60;99.90
52495;DHT22;38405;53.212;5.660;2022-10-23T17:04:19;14.60;99.90
52495;DHT22;38405;53.212;5.660;2022-10-23T17:06:45;14.50;99.90
52495;DHT22;38405;53.212;5.660;2022-10-23T17:09:10;14.60;99.90
52495;DHT22;38405;53.212;5.660;2022-10-23T17:11:38;14.60;99.90
52495;DHT22;38405;53.212;5.660;2022-10-23T17:14:13;14.60;99.90
52495;DHT22;38405;53.212;5.660;2022-10-23T17:16:46;14.60;99.90
52495;DHT22;38405;53.212;5.660;2022-10-23T17:19:13;14.60;99.90